sensor_id;sensor_type;location;lat;lon;timestamp;P1;durP1;ratioP1;P2;durP2;ratioP2
17127;SDS011;8679;50.842;4.322;2023-10-31T00:00:25;3.80;;;2.47;;
17127;SDS011;8679;50.842;4.322;2023-10-31T00:02:51;6.77;;;2.57;;
17127;SDS011;8679;50.842;4.322;2023-10-31T00:05:17;4.77;;;2.77;;
17127;SDS011;8679;50.842;4.322;2023-10-31T00:07:42;4.83;;;3.00;;
17127;SDS011;8679;50.842;4.322;2023-10-31T00:10:08;4.37;;;2.53;;
17127;SDS011;8679;50.842;4.322;2023-10-31T00:12:34;3.10;;;1.77;;
17127;SDS011;8679;50.842;4.322;2023-10-31T00:14:59;3.90;;;2.60;;
17127;SDS011;8679;50.842;4.322;2023-10-31T00:17:25;4.37;;;2.83;;
17127;SDS011;8679;50.842;4.322;2023-10-31T00:19:51;4.53;;;2.53;;
17127;SDS011;8679;50.842;4.322;2023-10-31T00:22:17;3.50;;;2.13;;
17127;SDS011;8679;50.842;4.322;2023-10-31T00:24:42;3.00;;;2.10;;
17127;SDS011;8679;50.842;4.322;2023-10-31T00:27:08;5.10;;;2.30;;
17127;SDS011;8679;50.842;4.322;2023-10-31T00:29:35;3.77;;;2.37;;
17127;SDS011;8679;50.842;4.322;2023-10-31T00:32:01;2.87;;;2.07;;
17127;SDS011;8679;50.842;4.322;2023-10-31T00:34:26;3.80;;;2.63;;
17127;SDS011;8679;50.842;4.322;2023-10-31T00:36:52;3.20;;;1.93;;
17127;SDS011;8679;50.842;4.322;2023-10-31T00:39:18;3.10;;;1.70;;
17127;SDS011;8679;50.842;4.322;2023-10-31T00:41:44;3.03;;;2.00;;
17127;SDS011;8679;50.842;4.322;2023-10-31T00:44:11;2.57;;;1.63;;
17127;SDS011;8679;50.842;4.322;2023-10-31T00:46:37;7.00;;;1.40;;
17127;SDS011;8679;50.842;4.322;2023-10-31T00:49:02;3.47;;;2.27;;
17127;SDS011;8679;50.842;4.322;2023-10-31T00:51:28;1.83;;;1.17;;
17127;SDS011;8679;50.842;4.322;2023-10-31T00:53:54;3.73;;;1.93;;
17127;SDS011;8679;50.842;4.322;2023-10-31T00:56:19;4.20;;;2.00;;
17127;SDS011;8679;50.842;4.322;2023-10-31T00:58:45;3.63;;;1.60;;
17127;SDS011;8679;50.842;4.322;2023-10-31T01:01:11;3.00;;;1.83;;
17127;SDS011;8679;50.842;4.322;2023-10-31T01:03:36;4.10;;;1.80;;
17127;SDS011;8679;50.842;4.322;2023-10-31T01:06:02;3.07;;;2.07;;
17127;SDS011;8679;50.842;4.322;2023-10-31T01:08:28;6.93;;;2.70;;
17127;SDS011;8679;50.842;4.322;2023-10-31T01:10:55;4.17;;;2.53;;
17127;SDS011;8679;50.842;4.322;2023-10-31T01:13:21;3.33;;;2.00;;
17127;SDS011;8679;50.842;4.322;2023-10-31T01:15:46;4.13;;;2.10;;
17127;SDS011;8679;50.842;4.322;2023-10-31T01:18:12;5.80;;;2.33;;
17127;SDS011;8679;50.842;4.322;2023-10-31T01:20:38;3.40;;;1.80;;
17127;SDS011;8679;50.842;4.322;2023-10-31T01:23:04;5.27;;;2.43;;
17127;SDS011;8679;50.842;4.322;2023-10-31T01:25:29;2.20;;;1.70;;
17127;SDS011;8679;50.842;4.322;2023-10-31T01:27:55;4.83;;;2.17;;
17127;SDS011;8679;50.842;4.322;2023-10-31T01:30:21;2.97;;;1.50;;
17127;SDS011;8679;50.842;4.322;2023-10-31T01:32:46;3.33;;;2.00;;
17127;SDS011;8679;50.842;4.322;2023-10-31T01:35:12;5.03;;;2.17;;
17127;SDS011;8679;50.842;4.322;2023-10-31T01:37:38;2.93;;;2.00;;
17127;SDS011;8679;50.842;4.322;2023-10-31T01:40:03;3.13;;;2.03;;
17127;SDS011;8679;50.842;4.322;2023-10-31T01:42:30;3.83;;;1.70;;
17127;SDS011;8679;50.842;4.322;2023-10-31T01:44:55;2.60;;;1.90;;
17127;SDS011;8679;50.842;4.322;2023-10-31T01:47:21;3.70;;;2.13;;
17127;SDS011;8679;50.842;4.322;2023-10-31T01:49:48;4.00;;;1.60;;
17127;SDS011;8679;50.842;4.322;2023-10-31T01:52:15;3.10;;;1.90;;
17127;SDS011;8679;50.842;4.322;2023-10-31T01:54:41;3.40;;;2.03;;
17127;SDS011;8679;50.842;4.322;2023-10-31T01:57:08;3.77;;;2.10;;
17127;SDS011;8679;50.842;4.322;2023-10-31T01:59:35;1.80;;;1.07;;
17127;SDS011;8679;50.842;4.322;2023-10-31T02:02:00;2.07;;;1.33;;
17127;SDS011;8679;50.842;4.322;2023-10-31T02:04:27;2.70;;;2.10;;
17127;SDS011;8679;50.842;4.322;2023-10-31T02:06:52;2.57;;;1.17;;
17127;SDS011;8679;50.842;4.322;2023-10-31T02:09:18;2.27;;;1.60;;
17127;SDS011;8679;50.842;4.322;2023-10-31T02:11:49;4.67;;;2.53;;
17127;SDS011;8679;50.842;4.322;2023-10-31T02:14:15;2.80;;;1.97;;
17127;SDS011;8679;50.842;4.322;2023-10-31T02:16:41;2.13;;;1.30;;
17127;SDS011;8679;50.842;4.322;2023-10-31T02:19:06;1.97;;;1.70;;
17127;SDS011;8679;50.842;4.322;2023-10-31T02:21:32;3.70;;;2.03;;
17127;SDS011;8679;50.842;4.322;2023-10-31T02:23:59;1.80;;;1.30;;
17127;SDS011;8679;50.842;4.322;2023-10-31T02:26:32;5.03;;;1.63;;
17127;SDS011;8679;50.842;4.322;2023-10-31T02:28:59;2.40;;;1.83;;
17127;SDS011;8679;50.842;4.322;2023-10-31T02:31:25;2.20;;;1.70;;
17127;SDS011;8679;50.842;4.322;2023-10-31T02:33:51;1.67;;;1.37;;
17127;SDS011;8679;50.842;4.322;2023-10-31T02:36:17;3.63;;;2.03;;
17127;SDS011;8679;50.842;4.322;2023-10-31T02:38:43;2.40;;;1.83;;
17127;SDS011;8679;50.842;4.322;2023-10-31T02:41:09;3.63;;;1.90;;
17127;SDS011;8679;50.842;4.322;2023-10-31T02:43:35;2.50;;;1.60;;
17127;SDS011;8679;50.842;4.322;2023-10-31T02:46:02;6.97;;;1.93;;
17127;SDS011;8679;50.842;4.322;2023-10-31T02:48:28;3.07;;;1.83;;
17127;SDS011;8679;50.842;4.322;2023-10-31T02:50:54;3.50;;;1.93;;
17127;SDS011;8679;50.842;4.322;2023-10-31T02:53:20;3.63;;;1.93;;
17127;SDS011;8679;50.842;4.322;2023-10-31T02:55:45;7.60;;;2.33;;
17127;SDS011;8679;50.842;4.322;2023-10-31T02:58:11;3.17;;;2.13;;
17127;SDS011;8679;50.842;4.322;2023-10-31T03:00:37;6.07;;;1.60;;
17127;SDS011;8679;50.842;4.322;2023-10-31T03:03:03;1.97;;;1.30;;
17127;SDS011;8679;50.842;4.322;2023-10-31T03:05:29;3.77;;;2.10;;
17127;SDS011;8679;50.842;4.322;2023-10-31T03:07:55;2.13;;;1.40;;
17127;SDS011;8679;50.842;4.322;2023-10-31T03:10:21;3.43;;;1.77;;
17127;SDS011;8679;50.842;4.322;2023-10-31T03:12:47;3.40;;;1.50;;
17127;SDS011;8679;50.842;4.322;2023-10-31T03:15:13;2.73;;;1.93;;
17127;SDS011;8679;50.842;4.322;2023-10-31T03:17:38;2.63;;;2.10;;
17127;SDS011;8679;50.842;4.322;2023-10-31T03:20:04;2.67;;;1.83;;
17127;SDS011;8679;50.842;4.322;2023-10-31T03:22:30;2.20;;;1.80;;
17127;SDS011;8679;50.842;4.322;2023-10-31T03:24:56;3.47;;;2.13;;
17127;SDS011;8679;50.842;4.322;2023-10-31T03:27:21;3.53;;;2.23;;
17127;SDS011;8679;50.842;4.322;2023-10-31T03:29:48;3.07;;;1.83;;
17127;SDS011;8679;50.842;4.322;2023-10-31T03:32:14;2.40;;;1.87;;
17127;SDS011;8679;50.842;4.322;2023-10-31T03:34:40;3.43;;;2.10;;
17127;SDS011;8679;50.842;4.322;2023-10-31T03:37:06;3.03;;;2.30;;
17127;SDS011;8679;50.842;4.322;2023-10-31T03:39:32;4.93;;;2.73;;
17127;SDS011;8679;50.842;4.322;2023-10-31T03:41:58;3.60;;;2.30;;
17127;SDS011;8679;50.842;4.322;2023-10-31T03:44:24;3.77;;;2.43;;
17127;SDS011;8679;50.842;4.322;2023-10-31T03:46:50;4.17;;;2.03;;
17127;SDS011;8679;50.842;4.322;2023-10-31T03:49:16;3.93;;;2.43;;
17127;SDS011;8679;50.842;4.322;2023-10-31T03:51:41;2.90;;;2.10;;
17127;SDS011;8679;50.842;4.322;2023-10-31T03:54:07;3.30;;;1.67;;
17127;SDS011;8679;50.842;4.322;2023-10-31T03:56:40;3.67;;;2.17;;
17127;SDS011;8679;50.842;4.322;2023-10-31T03:59:07;2.97;;;2.30;;
17127;SDS011;8679;50.842;4.322;2023-10-31T04:01:33;3.03;;;1.90;;
17127;SDS011;8679;50.842;4.322;2023-10-31T04:03:58;4.77;;;2.30;;
17127;SDS011;8679;50.842;4.322;2023-10-31T04:06:24;4.20;;;2.80;;
17127;SDS011;8679;50.842;4.322;2023-10-31T04:08:49;3.63;;;2.27;;
17127;SDS011;8679;50.842;4.322;2023-10-31T04:11:15;4.27;;;2.70;;
17127;SDS011;8679;50.842;4.322;2023-10-31T04:13:41;3.90;;;2.63;;
17127;SDS011;8679;50.842;4.322;2023-10-31T04:16:06;6.60;;;2.97;;
17127;SDS011;8679;50.842;4.322;2023-10-31T04:18:32;5.03;;;2.73;;
17127;SDS011;8679;50.842;4.322;2023-10-31T04:20:58;5.23;;;2.90;;
17127;SDS011;8679;50.842;4.322;2023-10-31T04:23:24;4.80;;;2.70;;
17127;SDS011;8679;50.842;4.322;2023-10-31T04:25:51;7.33;;;4.53;;
17127;SDS011;8679;50.842;4.322;2023-10-31T04:28:17;7.30;;;2.87;;
17127;SDS011;8679;50.842;4.322;2023-10-31T04:30:43;3.70;;;2.63;;
17127;SDS011;8679;50.842;4.322;2023-10-31T04:33:09;4.37;;;2.60;;
17127;SDS011;8679;50.842;4.322;2023-10-31T04:35:35;3.43;;;2.60;;
17127;SDS011;8679;50.842;4.322;2023-10-31T04:38:00;3.30;;;2.13;;
17127;SDS011;8679;50.842;4.322;2023-10-31T04:40:26;4.93;;;3.50;;
17127;SDS011;8679;50.842;4.322;2023-10-31T04:42:52;4.83;;;2.70;;
17127;SDS011;8679;50.842;4.322;2023-10-31T04:45:17;4.30;;;2.60;;
17127;SDS011;8679;50.842;4.322;2023-10-31T04:47:43;4.83;;;3.03;;
17127;SDS011;8679;50.842;4.322;2023-10-31T04:50:09;6.20;;;3.00;;
17127;SDS011;8679;50.842;4.322;2023-10-31T04:52:35;9.20;;;4.03;;
17127;SDS011;8679;50.842;4.322;2023-10-31T04:55:00;5.90;;;3.00;;
17127;SDS011;8679;50.842;4.322;2023-10-31T04:57:26;4.30;;;2.57;;
17127;SDS011;8679;50.842;4.322;2023-10-31T04:59:52;6.63;;;3.87;;
17127;SDS011;8679;50.842;4.322;2023-10-31T05:02:21;5.90;;;3.40;;
17127;SDS011;8679;50.842;4.322;2023-10-31T05:04:48;4.53;;;3.03;;
17127;SDS011;8679;50.842;4.322;2023-10-31T05:07:16;6.87;;;3.73;;
17127;SDS011;8679;50.842;4.322;2023-10-31T05:09:42;5.33;;;3.20;;
17127;SDS011;8679;50.842;4.322;2023-10-31T05:12:07;4.60;;;2.73;;
17127;SDS011;8679;50.842;4.322;2023-10-31T05:14:33;6.37;;;2.73;;
17127;SDS011;8679;50.842;4.322;2023-10-31T05:16:59;3.97;;;2.33;;
17127;SDS011;8679;50.842;4.322;2023-10-31T05:19:24;7.97;;;3.43;;
17127;SDS011;8679;50.842;4.322;2023-10-31T05:21:51;4.33;;;2.67;;
17127;SDS011;8679;50.842;4.322;2023-10-31T05:24:17;3.33;;;1.93;;
17127;SDS011;8679;50.842;4.322;2023-10-31T05:26:42;4.40;;;2.73;;
17127;SDS011;8679;50.842;4.322;2023-10-31T05:29:08;5.23;;;3.07;;
17127;SDS011;8679;50.842;4.322;2023-10-31T05:31:34;8.57;;;2.80;;
17127;SDS011;8679;50.842;4.322;2023-10-31T05:34:00;5.90;;;2.97;;
17127;SDS011;8679;50.842;4.322;2023-10-31T05:36:26;5.60;;;2.77;;
17127;SDS011;8679;50.842;4.322;2023-10-31T05:38:53;5.60;;;2.60;;
17127;SDS011;8679;50.842;4.322;2023-10-31T05:41:18;4.40;;;2.80;;
17127;SDS011;8679;50.842;4.322;2023-10-31T05:43:44;4.30;;;2.97;;
17127;SDS011;8679;50.842;4.322;2023-10-31T05:46:10;5.07;;;2.97;;
17127;SDS011;8679;50.842;4.322;2023-10-31T05:48:38;3.63;;;2.47;;
17127;SDS011;8679;50.842;4.322;2023-10-31T05:51:04;7.67;;;3.50;;
17127;SDS011;8679;50.842;4.322;2023-10-31T05:53:36;7.40;;;2.90;;
17127;SDS011;8679;50.842;4.322;2023-10-31T05:56:02;5.20;;;3.20;;
17127;SDS011;8679;50.842;4.322;2023-10-31T05:58:28;4.97;;;2.73;;
17127;SDS011;8679;50.842;4.322;2023-10-31T06:00:53;20.33;;;2.73;;
17127;SDS011;8679;50.842;4.322;2023-10-31T06:03:19;3.50;;;2.47;;
17127;SDS011;8679;50.842;4.322;2023-10-31T06:05:45;8.33;;;3.27;;
17127;SDS011;8679;50.842;4.322;2023-10-31T06:08:11;3.97;;;2.63;;
17127;SDS011;8679;50.842;4.322;2023-10-31T06:10:36;4.17;;;2.13;;
17127;SDS011;8679;50.842;4.322;2023-10-31T06:13:02;5.90;;;3.07;;
17127;SDS011;8679;50.842;4.322;2023-10-31T06:15:28;4.60;;;2.63;;
17127;SDS011;8679;50.842;4.322;2023-10-31T06:17:53;4.77;;;2.77;;
17127;SDS011;8679;50.842;4.322;2023-10-31T06:20:19;7.47;;;3.37;;
17127;SDS011;8679;50.842;4.322;2023-10-31T06:22:45;4.67;;;3.13;;
17127;SDS011;8679;50.842;4.322;2023-10-31T06:25:10;7.70;;;2.90;;
17127;SDS011;8679;50.842;4.322;2023-10-31T06:27:36;3.40;;;2.30;;
17127;SDS011;8679;50.842;4.322;2023-10-31T06:30:02;4.00;;;2.43;;
17127;SDS011;8679;50.842;4.322;2023-10-31T06:32:30;2.40;;;1.97;;
17127;SDS011;8679;50.842;4.322;2023-10-31T06:34:56;3.37;;;2.43;;
17127;SDS011;8679;50.842;4.322;2023-10-31T06:37:21;4.73;;;2.60;;
17127;SDS011;8679;50.842;4.322;2023-10-31T06:39:47;4.10;;;2.53;;
17127;SDS011;8679;50.842;4.322;2023-10-31T06:42:13;5.83;;;2.63;;
17127;SDS011;8679;50.842;4.322;2023-10-31T06:44:39;3.80;;;2.50;;
17127;SDS011;8679;50.842;4.322;2023-10-31T06:47:04;4.23;;;2.33;;
17127;SDS011;8679;50.842;4.322;2023-10-31T06:49:30;3.40;;;2.53;;
17127;SDS011;8679;50.842;4.322;2023-10-31T06:51:56;5.33;;;3.00;;
17127;SDS011;8679;50.842;4.322;2023-10-31T06:54:21;4.97;;;2.60;;
17127;SDS011;8679;50.842;4.322;2023-10-31T06:56:47;5.23;;;2.17;;
17127;SDS011;8679;50.842;4.322;2023-10-31T06:59:13;2.23;;;1.80;;
17127;SDS011;8679;50.842;4.322;2023-10-31T07:01:38;4.20;;;2.03;;
17127;SDS011;8679;50.842;4.322;2023-10-31T07:04:04;2.27;;;1.80;;
17127;SDS011;8679;50.842;4.322;2023-10-31T07:06:30;3.93;;;2.03;;
17127;SDS011;8679;50.842;4.322;2023-10-31T07:08:56;2.60;;;2.40;;
17127;SDS011;8679;50.842;4.322;2023-10-31T07:11:22;3.00;;;2.20;;
17127;SDS011;8679;50.842;4.322;2023-10-31T07:13:48;5.93;;;2.17;;
17127;SDS011;8679;50.842;4.322;2023-10-31T07:16:13;4.30;;;1.47;;
17127;SDS011;8679;50.842;4.322;2023-10-31T07:18:39;1.47;;;1.30;;
17127;SDS011;8679;50.842;4.322;2023-10-31T07:21:05;1.70;;;1.60;;
17127;SDS011;8679;50.842;4.322;2023-10-31T07:23:31;3.40;;;2.13;;
17127;SDS011;8679;50.842;4.322;2023-10-31T07:25:56;2.90;;;1.77;;
17127;SDS011;8679;50.842;4.322;2023-10-31T07:28:22;4.13;;;2.50;;
17127;SDS011;8679;50.842;4.322;2023-10-31T07:30:48;4.43;;;2.30;;
17127;SDS011;8679;50.842;4.322;2023-10-31T07:33:17;3.77;;;2.10;;
17127;SDS011;8679;50.842;4.322;2023-10-31T07:35:42;2.97;;;1.60;;
17127;SDS011;8679;50.842;4.322;2023-10-31T07:38:08;3.77;;;2.50;;
17127;SDS011;8679;50.842;4.322;2023-10-31T07:40:34;2.93;;;1.97;;
17127;SDS011;8679;50.842;4.322;2023-10-31T07:42:59;3.10;;;1.93;;
17127;SDS011;8679;50.842;4.322;2023-10-31T07:45:25;5.63;;;2.00;;
17127;SDS011;8679;50.842;4.322;2023-10-31T07:47:51;2.93;;;1.97;;
17127;SDS011;8679;50.842;4.322;2023-10-31T07:50:16;3.20;;;1.90;;
17127;SDS011;8679;50.842;4.322;2023-10-31T07:52:42;3.67;;;2.10;;
17127;SDS011;8679;50.842;4.322;2023-10-31T07:55:09;3.10;;;1.70;;
17127;SDS011;8679;50.842;4.322;2023-10-31T07:57:36;3.03;;;1.87;;
17127;SDS011;8679;50.842;4.322;2023-10-31T08:00:02;1.30;;;1.13;;
17127;SDS011;8679;50.842;4.322;2023-10-31T08:02:28;2.07;;;1.67;;
17127;SDS011;8679;50.842;4.322;2023-10-31T08:04:54;2.83;;;1.90;;
17127;SDS011;8679;50.842;4.322;2023-10-31T08:07:19;2.37;;;1.50;;
17127;SDS011;8679;50.842;4.322;2023-10-31T08:09:45;2.47;;;1.87;;
17127;SDS011;8679;50.842;4.322;2023-10-31T08:12:11;2.37;;;1.47;;
17127;SDS011;8679;50.842;4.322;2023-10-31T08:14:37;2.70;;;1.50;;
17127;SDS011;8679;50.842;4.322;2023-10-31T08:17:02;2.40;;;2.20;;
17127;SDS011;8679;50.842;4.322;2023-10-31T08:19:29;2.70;;;1.43;;
17127;SDS011;8679;50.842;4.322;2023-10-31T08:21:55;3.10;;;1.80;;
17127;SDS011;8679;50.842;4.322;2023-10-31T08:24:21;2.07;;;1.30;;
17127;SDS011;8679;50.842;4.322;2023-10-31T08:26:46;4.53;;;1.77;;
17127;SDS011;8679;50.842;4.322;2023-10-31T08:29:12;7.07;;;1.87;;
17127;SDS011;8679;50.842;4.322;2023-10-31T08:31:37;5.13;;;1.73;;
17127;SDS011;8679;50.842;4.322;2023-10-31T08:34:03;1.80;;;1.40;;
17127;SDS011;8679;50.842;4.322;2023-10-31T08:36:29;2.10;;;1.27;;
17127;SDS011;8679;50.842;4.322;2023-10-31T08:38:55;2.20;;;2.00;;
17127;SDS011;8679;50.842;4.322;2023-10-31T08:41:20;1.70;;;1.30;;
17127;SDS011;8679;50.842;4.322;2023-10-31T08:43:47;2.27;;;1.80;;
17127;SDS011;8679;50.842;4.322;2023-10-31T08:46:13;2.50;;;1.47;;
17127;SDS011;8679;50.842;4.322;2023-10-31T08:48:39;1.37;;;1.17;;
17127;SDS011;8679;50.842;4.322;2023-10-31T08:51:07;10.77;;;2.40;;
17127;SDS011;8679;50.842;4.322;2023-10-31T08:53:33;2.00;;;1.50;;
17127;SDS011;8679;50.842;4.322;2023-10-31T08:55:58;3.17;;;1.30;;
17127;SDS011;8679;50.842;4.322;2023-10-31T08:58:24;1.53;;;1.13;;
17127;SDS011;8679;50.842;4.322;2023-10-31T09:00:50;1.57;;;1.37;;
17127;SDS011;8679;50.842;4.322;2023-10-31T09:03:15;1.50;;;1.20;;
17127;SDS011;8679;50.842;4.322;2023-10-31T09:05:41;9.03;;;1.63;;
17127;SDS011;8679;50.842;4.322;2023-10-31T09:08:07;1.57;;;1.10;;
17127;SDS011;8679;50.842;4.322;2023-10-31T09:10:35;1.20;;;1.10;;
17127;SDS011;8679;50.842;4.322;2023-10-31T09:13:03;2.50;;;1.60;;
17127;SDS011;8679;50.842;4.322;2023-10-31T09:15:28;5.40;;;1.73;;
17127;SDS011;8679;50.842;4.322;2023-10-31T09:17:54;5.47;;;1.50;;
17127;SDS011;8679;50.842;4.322;2023-10-31T09:20:20;1.27;;;1.17;;
17127;SDS011;8679;50.842;4.322;2023-10-31T09:22:45;2.10;;;1.20;;
17127;SDS011;8679;50.842;4.322;2023-10-31T09:25:11;3.33;;;1.53;;
17127;SDS011;8679;50.842;4.322;2023-10-31T09:27:39;1.90;;;1.10;;
17127;SDS011;8679;50.842;4.322;2023-10-31T09:30:06;1.17;;;1.03;;
17127;SDS011;8679;50.842;4.322;2023-10-31T09:32:32;3.17;;;1.77;;
17127;SDS011;8679;50.842;4.322;2023-10-31T09:34:57;1.63;;;1.10;;
17127;SDS011;8679;50.842;4.322;2023-10-31T09:37:24;3.80;;;1.97;;
17127;SDS011;8679;50.842;4.322;2023-10-31T09:39:49;1.97;;;1.57;;
17127;SDS011;8679;50.842;4.322;2023-10-31T09:42:15;4.20;;;1.70;;
17127;SDS011;8679;50.842;4.322;2023-10-31T09:44:41;2.03;;;1.33;;
17127;SDS011;8679;50.842;4.322;2023-10-31T09:47:07;1.33;;;1.00;;
17127;SDS011;8679;50.842;4.322;2023-10-31T09:49:32;1.63;;;1.47;;
17127;SDS011;8679;50.842;4.322;2023-10-31T09:51:59;3.87;;;1.57;;
17127;SDS011;8679;50.842;4.322;2023-10-31T09:54:25;1.43;;;0.77;;
17127;SDS011;8679;50.842;4.322;2023-10-31T09:56:52;2.53;;;1.13;;
17127;SDS011;8679;50.842;4.322;2023-10-31T09:59:17;1.43;;;1.23;;
17127;SDS011;8679;50.842;4.322;2023-10-31T10:01:43;2.57;;;1.37;;
17127;SDS011;8679;50.842;4.322;2023-10-31T10:04:09;2.43;;;1.70;;
17127;SDS011;8679;50.842;4.322;2023-10-31T10:06:35;2.70;;;1.37;;
17127;SDS011;8679;50.842;4.322;2023-10-31T10:09:05;4.73;;;1.13;;
17127;SDS011;8679;50.842;4.322;2023-10-31T10:11:33;6.50;;;1.77;;
17127;SDS011;8679;50.842;4.322;2023-10-31T10:13:59;3.20;;;1.80;;
17127;SDS011;8679;50.842;4.322;2023-10-31T10:16:31;3.57;;;1.57;;
17127;SDS011;8679;50.842;4.322;2023-10-31T10:18:57;2.77;;;1.20;;
17127;SDS011;8679;50.842;4.322;2023-10-31T10:24:16;1.57;;;1.10;;
17127;SDS011;8679;50.842;4.322;2023-10-31T10:26:42;1.03;;;0.93;;
17127;SDS011;8679;50.842;4.322;2023-10-31T10:29:09;4.40;;;1.30;;
17127;SDS011;8679;50.842;4.322;2023-10-31T10:31:35;4.27;;;0.90;;
17127;SDS011;8679;50.842;4.322;2023-10-31T10:34:01;1.20;;;1.10;;
17127;SDS011;8679;50.842;4.322;2023-10-31T10:36:27;1.93;;;1.20;;
17127;SDS011;8679;50.842;4.322;2023-10-31T10:38:56;1.80;;;1.40;;
17127;SDS011;8679;50.842;4.322;2023-10-31T10:41:24;1.53;;;1.30;;
17127;SDS011;8679;50.842;4.322;2023-10-31T10:44:09;5.03;;;1.33;;
17127;SDS011;8679;50.842;4.322;2023-10-31T10:46:38;4.47;;;1.70;;
17127;SDS011;8679;50.842;4.322;2023-10-31T10:49:06;1.70;;;1.40;;
17127;SDS011;8679;50.842;4.322;2023-10-31T10:51:40;2.20;;;1.47;;
17127;SDS011;8679;50.842;4.322;2023-10-31T10:54:22;3.47;;;0.93;;
17127;SDS011;8679;50.842;4.322;2023-10-31T10:56:53;3.53;;;1.10;;
17127;SDS011;8679;50.842;4.322;2023-10-31T10:59:30;2.53;;;1.30;;
17127;SDS011;8679;50.842;4.322;2023-10-31T11:02:03;3.33;;;1.80;;
17127;SDS011;8679;50.842;4.322;2023-10-31T11:04:31;5.63;;;1.30;;
17127;SDS011;8679;50.842;4.322;2023-10-31T11:06:58;5.03;;;1.30;;
17127;SDS011;8679;50.842;4.322;2023-10-31T11:09:25;4.17;;;1.47;;
17127;SDS011;8679;50.842;4.322;2023-10-31T11:11:50;6.57;;;1.87;;
17127;SDS011;8679;50.842;4.322;2023-10-31T11:14:17;7.37;;;2.73;;
17127;SDS011;8679;50.842;4.322;2023-10-31T11:16:53;2.47;;;1.63;;
17127;SDS011;8679;50.842;4.322;2023-10-31T11:19:22;3.00;;;1.63;;
17127;SDS011;8679;50.842;4.322;2023-10-31T11:21:58;8.00;;;3.03;;
17127;SDS011;8679;50.842;4.322;2023-10-31T11:24:29;9.17;;;2.80;;
17127;SDS011;8679;50.842;4.322;2023-10-31T11:27:01;3.10;;;1.80;;
17127;SDS011;8679;50.842;4.322;2023-10-31T11:29:27;4.93;;;2.40;;
17127;SDS011;8679;50.842;4.322;2023-10-31T11:31:55;3.17;;;1.87;;
17127;SDS011;8679;50.842;4.322;2023-10-31T11:34:26;3.93;;;2.00;;
17127;SDS011;8679;50.842;4.322;2023-10-31T11:36:53;4.57;;;2.27;;
17127;SDS011;8679;50.842;4.322;2023-10-31T11:39:39;7.40;;;3.17;;
17127;SDS011;8679;50.842;4.322;2023-10-31T11:42:04;7.63;;;2.83;;
17127;SDS011;8679;50.842;4.322;2023-10-31T11:44:55;3.90;;;2.40;;
17127;SDS011;8679;50.842;4.322;2023-10-31T11:47:22;6.77;;;2.90;;
17127;SDS011;8679;50.842;4.322;2023-10-31T11:49:48;3.60;;;2.40;;
17127;SDS011;8679;50.842;4.322;2023-10-31T11:52:17;9.43;;;3.23;;
17127;SDS011;8679;50.842;4.322;2023-10-31T11:54:43;3.30;;;2.50;;
17127;SDS011;8679;50.842;4.322;2023-10-31T11:57:09;9.63;;;2.93;;
17127;SDS011;8679;50.842;4.322;2023-10-31T11:59:38;3.83;;;2.43;;
17127;SDS011;8679;50.842;4.322;2023-10-31T12:02:14;5.20;;;2.70;;
17127;SDS011;8679;50.842;4.322;2023-10-31T12:04:40;4.17;;;2.17;;
17127;SDS011;8679;50.842;4.322;2023-10-31T12:07:06;5.03;;;2.47;;
17127;SDS011;8679;50.842;4.322;2023-10-31T12:09:33;3.90;;;2.50;;
17127;SDS011;8679;50.842;4.322;2023-10-31T12:12:10;2.90;;;1.87;;
17127;SDS011;8679;50.842;4.322;2023-10-31T12:14:35;5.37;;;2.57;;
17127;SDS011;8679;50.842;4.322;2023-10-31T12:17:03;9.20;;;2.70;;
17127;SDS011;8679;50.842;4.322;2023-10-31T12:19:30;4.80;;;2.23;;
17127;SDS011;8679;50.842;4.322;2023-10-31T12:21:55;6.77;;;3.13;;
17127;SDS011;8679;50.842;4.322;2023-10-31T12:24:22;4.80;;;2.70;;
17127;SDS011;8679;50.842;4.322;2023-10-31T12:26:48;6.57;;;2.40;;
17127;SDS011;8679;50.842;4.322;2023-10-31T12:29:18;4.43;;;3.10;;
17127;SDS011;8679;50.842;4.322;2023-10-31T12:31:46;4.03;;;1.80;;
17127;SDS011;8679;50.842;4.322;2023-10-31T12:34:23;2.73;;;1.57;;
17127;SDS011;8679;50.842;4.322;2023-10-31T12:36:53;4.43;;;1.90;;
17127;SDS011;8679;50.842;4.322;2023-10-31T12:39:24;7.57;;;2.40;;
17127;SDS011;8679;50.842;4.322;2023-10-31T12:41:51;3.10;;;1.97;;
17127;SDS011;8679;50.842;4.322;2023-10-31T12:44:22;3.80;;;1.93;;
17127;SDS011;8679;50.842;4.322;2023-10-31T12:46:49;2.50;;;1.77;;
17127;SDS011;8679;50.842;4.322;2023-10-31T12:49:17;1.73;;;1.40;;
17127;SDS011;8679;50.842;4.322;2023-10-31T12:54:28;2.60;;;1.60;;
17127;SDS011;8679;50.842;4.322;2023-10-31T12:56:58;5.63;;;1.87;;
17127;SDS011;8679;50.842;4.322;2023-10-31T12:59:29;2.77;;;1.40;;
17127;SDS011;8679;50.842;4.322;2023-10-31T13:01:55;2.27;;;1.40;;
17127;SDS011;8679;50.842;4.322;2023-10-31T13:04:27;2.93;;;1.37;;
17127;SDS011;8679;50.842;4.322;2023-10-31T13:06:58;2.00;;;1.13;;
17127;SDS011;8679;50.842;4.322;2023-10-31T13:09:31;1.20;;;0.83;;
17127;SDS011;8679;50.842;4.322;2023-10-31T13:12:00;2.70;;;1.30;;
17127;SDS011;8679;50.842;4.322;2023-10-31T13:14:29;1.43;;;1.10;;
17127;SDS011;8679;50.842;4.322;2023-10-31T13:16:55;1.40;;;1.23;;
17127;SDS011;8679;50.842;4.322;2023-10-31T13:19:20;2.33;;;1.23;;
17127;SDS011;8679;50.842;4.322;2023-10-31T13:21:46;1.60;;;1.00;;
17127;SDS011;8679;50.842;4.322;2023-10-31T13:24:12;1.70;;;1.10;;
17127;SDS011;8679;50.842;4.322;2023-10-31T13:26:37;2.30;;;1.20;;
17127;SDS011;8679;50.842;4.322;2023-10-31T13:29:03;3.40;;;2.30;;
17127;SDS011;8679;50.842;4.322;2023-10-31T13:31:28;1.83;;;1.23;;
17127;SDS011;8679;50.842;4.322;2023-10-31T13:33:54;1.80;;;1.43;;
17127;SDS011;8679;50.842;4.322;2023-10-31T13:36:20;6.13;;;1.80;;
17127;SDS011;8679;50.842;4.322;2023-10-31T13:38:46;4.73;;;1.77;;
17127;SDS011;8679;50.842;4.322;2023-10-31T13:41:13;2.33;;;1.90;;
17127;SDS011;8679;50.842;4.322;2023-10-31T13:43:39;4.03;;;1.47;;
17127;SDS011;8679;50.842;4.322;2023-10-31T13:46:04;2.93;;;1.60;;
17127;SDS011;8679;50.842;4.322;2023-10-31T13:48:31;3.37;;;1.33;;
17127;SDS011;8679;50.842;4.322;2023-10-31T13:50:57;3.00;;;1.87;;
17127;SDS011;8679;50.842;4.322;2023-10-31T13:53:23;1.83;;;1.20;;
17127;SDS011;8679;50.842;4.322;2023-10-31T13:55:48;4.67;;;1.73;;
17127;SDS011;8679;50.842;4.322;2023-10-31T13:58:14;3.43;;;1.70;;
17127;SDS011;8679;50.842;4.322;2023-10-31T14:00:40;4.20;;;1.37;;
17127;SDS011;8679;50.842;4.322;2023-10-31T14:03:08;6.00;;;1.83;;
17127;SDS011;8679;50.842;4.322;2023-10-31T14:05:34;4.50;;;1.13;;
17127;SDS011;8679;50.842;4.322;2023-10-31T14:07:59;1.27;;;0.90;;
17127;SDS011;8679;50.842;4.322;2023-10-31T14:10:25;1.97;;;1.10;;
17127;SDS011;8679;50.842;4.322;2023-10-31T14:12:51;0.80;;;0.77;;
17127;SDS011;8679;50.842;4.322;2023-10-31T14:15:18;0.60;;;0.60;;
17127;SDS011;8679;50.842;4.322;2023-10-31T14:17:43;1.53;;;0.77;;
17127;SDS011;8679;50.842;4.322;2023-10-31T14:20:09;1.43;;;0.83;;
17127;SDS011;8679;50.842;4.322;2023-10-31T14:22:35;2.27;;;1.73;;
17127;SDS011;8679;50.842;4.322;2023-10-31T14:25:01;1.73;;;1.40;;
17127;SDS011;8679;50.842;4.322;2023-10-31T14:27:29;3.10;;;0.90;;
17127;SDS011;8679;50.842;4.322;2023-10-31T14:29:55;1.53;;;0.90;;
17127;SDS011;8679;50.842;4.322;2023-10-31T14:32:21;2.00;;;1.50;;
17127;SDS011;8679;50.842;4.322;2023-10-31T14:34:47;0.70;;;0.60;;
17127;SDS011;8679;50.842;4.322;2023-10-31T14:37:12;3.90;;;1.73;;
17127;SDS011;8679;50.842;4.322;2023-10-31T14:39:38;4.57;;;1.10;;
17127;SDS011;8679;50.842;4.322;2023-10-31T14:42:03;0.60;;;0.47;;
17127;SDS011;8679;50.842;4.322;2023-10-31T14:44:30;4.23;;;0.83;;
17127;SDS011;8679;50.842;4.322;2023-10-31T14:46:55;0.80;;;0.80;;
17127;SDS011;8679;50.842;4.322;2023-10-31T14:49:21;2.60;;;1.10;;
17127;SDS011;8679;50.842;4.322;2023-10-31T14:51:47;2.23;;;1.00;;
17127;SDS011;8679;50.842;4.322;2023-10-31T14:54:12;0.80;;;0.80;;
17127;SDS011;8679;50.842;4.322;2023-10-31T14:56:38;0.53;;;0.43;;
17127;SDS011;8679;50.842;4.322;2023-10-31T14:59:05;1.50;;;1.07;;
17127;SDS011;8679;50.842;4.322;2023-10-31T15:01:31;1.97;;;0.70;;